createdAt,value
2023-05-09T00:00:13.935Z,14.58
2023-05-09T00:02:40.623Z,14.57
2023-05-09T00:05:10.074Z,14.54
2023-05-09T00:07:36.569Z,14.54
2023-05-09T00:10:04.718Z,14.51
2023-05-09T00:12:31.491Z,14.51
2023-05-09T00:14:58.595Z,14.51
2023-05-09T00:17:25.552Z,14.51
2023-05-09T00:19:53.057Z,14.50
2023-05-09T00:22:23.451Z,14.47
2023-05-09T00:24:50.649Z,14.45
2023-05-09T00:27:17.388Z,14.46
2023-05-09T00:29:44.174Z,14.46
2023-05-09T00:32:10.934Z,14.48
2023-05-09T00:34:37.503Z,14.47
2023-05-09T00:37:04.028Z,14.47
2023-05-09T00:39:30.888Z,14.45
2023-05-09T00:41:57.438Z,14.46
2023-05-09T00:44:24.050Z,14.46
2023-05-09T00:46:50.722Z,14.45
2023-05-09T00:49:17.247Z,14.44
2023-05-09T00:51:43.842Z,14.44
2023-05-09T00:54:12.128Z,14.42
2023-05-09T00:56:39.262Z,14.38
2023-05-09T00:59:06.518Z,14.35
2023-05-09T01:01:33.510Z,14.32
2023-05-09T01:04:00.214Z,14.28
2023-05-09T01:06:42.916Z,14.27
2023-05-09T01:09:50.582Z,14.21
2023-05-09T01:12:23.642Z,14.18
2023-05-09T01:15:01.313Z,14.11
2023-05-09T01:17:38.793Z,14.02
2023-05-09T01:20:17.634Z,13.96
2023-05-09T01:22:49.079Z,13.91
2023-05-09T01:25:44.075Z,13.87
2023-05-09T01:28:29.225Z,13.81
2023-05-09T01:30:57.365Z,13.73
2023-05-09T01:33:26.430Z,13.71
2023-05-09T01:35:59.746Z,13.68
2023-05-09T01:38:29.880Z,13.65
2023-05-09T01:40:59.685Z,13.62
2023-05-09T01:43:29.918Z,13.59
2023-05-09T01:45:58.534Z,13.53
2023-05-09T01:48:28.146Z,13.50
2023-05-09T01:50:55.603Z,13.47
2023-05-09T01:53:24.314Z,13.43
2023-05-09T01:55:52.262Z,13.40
2023-05-09T01:58:21.289Z,13.40
2023-05-09T02:00:49.011Z,13.38
2023-05-09T02:03:15.709Z,13.33
2023-05-09T02:05:43.337Z,13.34
2023-05-09T02:08:10.686Z,13.28
2023-05-09T02:10:38.173Z,13.24
2023-05-09T02:13:04.746Z,13.19
2023-05-09T02:15:31.838Z,13.15
2023-05-09T02:17:58.479Z,13.14
2023-05-09T02:20:24.984Z,13.11
2023-05-09T02:22:51.627Z,13.09
2023-05-09T02:25:18.705Z,13.06
2023-05-09T02:27:46.428Z,13.06
2023-05-09T02:30:18.750Z,13.03
2023-05-09T02:32:48.848Z,13.00
2023-05-09T02:35:17.392Z,12.98
2023-05-09T02:37:45.887Z,12.95
2023-05-09T02:40:13.870Z,12.89
2023-05-09T02:42:40.522Z,12.85
2023-05-09T02:45:07.888Z,12.84
2023-05-09T02:47:34.448Z,12.81
2023-05-09T02:50:00.990Z,12.78
2023-05-09T02:52:27.570Z,12.75
2023-05-09T02:54:54.076Z,12.72
2023-05-09T02:57:21.222Z,12.71
2023-05-09T02:59:47.768Z,12.72
2023-05-09T03:02:14.352Z,12.71
2023-05-09T03:04:41.486Z,12.71
2023-05-09T03:07:08.008Z,12.74
2023-05-09T03:09:34.518Z,12.73
2023-05-09T03:12:00.997Z,12.75
2023-05-09T03:14:27.541Z,12.76
2023-05-09T03:16:54.033Z,12.75
2023-05-09T03:19:20.559Z,12.76
2023-05-09T03:21:47.318Z,12.77
2023-05-09T03:24:13.925Z,12.74
2023-05-09T03:26:40.600Z,12.77
2023-05-09T03:29:07.097Z,12.80
2023-05-09T03:31:33.767Z,12.80
2023-05-09T03:34:00.739Z,12.78
2023-05-09T03:36:27.535Z,12.80
2023-05-09T03:38:54.102Z,12.83
2023-05-09T03:41:20.870Z,12.84
2023-05-09T03:43:47.414Z,12.82
2023-05-09T03:46:13.965Z,12.82
2023-05-09T03:48:40.567Z,12.81
2023-05-09T03:51:07.174Z,12.76
2023-05-09T03:53:33.727Z,12.74
2023-05-09T03:56:00.346Z,12.71
2023-05-09T03:58:26.957Z,12.70
2023-05-09T04:00:53.729Z,12.65
2023-05-09T04:03:20.788Z,12.63
2023-05-09T04:05:47.465Z,12.59
2023-05-09T04:08:14.089Z,12.56
2023-05-09T04:10:40.667Z,12.51
2023-05-09T04:13:07.293Z,12.45
2023-05-09T04:15:33.820Z,12.45
2023-05-09T04:18:00.354Z,12.44
2023-05-09T04:20:27.268Z,12.42
2023-05-09T04:22:53.914Z,12.41
2023-05-09T04:25:21.178Z,12.39
2023-05-09T04:27:48.110Z,12.37
2023-05-09T04:30:15.142Z,12.36
2023-05-09T04:32:45.901Z,12.34
2023-05-09T04:35:14.037Z,12.30
2023-05-09T04:37:40.804Z,12.29
2023-05-09T04:40:09.155Z,12.23
2023-05-09T04:42:36.078Z,12.24
2023-05-09T04:45:03.090Z,12.19
2023-05-09T04:47:29.629Z,12.20
2023-05-09T04:49:56.185Z,12.17
2023-05-09T04:52:22.899Z,12.15
2023-05-09T04:54:49.673Z,12.14
2023-05-09T04:57:18.295Z,12.13
2023-05-09T04:59:45.808Z,12.13
2023-05-09T05:02:13.009Z,12.09
2023-05-09T05:04:39.766Z,12.09
2023-05-09T05:07:06.496Z,12.08
2023-05-09T05:09:33.061Z,12.09
2023-05-09T05:12:02.380Z,12.13
2023-05-09T05:14:29.683Z,12.18
2023-05-09T05:16:56.261Z,12.22
2023-05-09T05:19:22.840Z,12.29
2023-05-09T05:21:49.330Z,12.31
2023-05-09T05:24:15.822Z,12.31
2023-05-09T05:26:42.430Z,12.32
2023-05-09T05:29:09.108Z,12.35
2023-05-09T05:31:36.519Z,12.36
2023-05-09T05:34:03.193Z,12.34
2023-05-09T05:36:29.703Z,12.34
2023-05-09T05:38:56.214Z,12.37
2023-05-09T05:41:23.475Z,12.32
2023-05-09T05:43:51.129Z,12.35
2023-05-09T05:46:19.494Z,12.34
2023-05-09T05:48:46.127Z,12.38
2023-05-09T05:51:12.603Z,12.40
2023-05-09T05:53:39.055Z,12.42
2023-05-09T05:56:05.844Z,12.43
2023-05-09T05:58:32.340Z,12.43
2023-05-09T06:00:58.972Z,12.46
2023-05-09T06:03:25.618Z,12.50
2023-05-09T06:05:52.163Z,12.51
2023-05-09T06:08:18.708Z,12.54
2023-05-09T06:10:45.530Z,12.55
2023-05-09T06:13:12.189Z,12.58
2023-05-09T06:15:38.710Z,12.61
2023-05-09T06:18:05.710Z,12.65
2023-05-09T06:20:32.267Z,12.67
2023-05-09T06:22:58.818Z,12.70
2023-05-09T06:25:25.327Z,12.72
2023-05-09T06:27:51.879Z,12.75
2023-05-09T06:30:26.290Z,12.78
2023-05-09T06:32:54.599Z,12.79
2023-05-09T06:35:21.450Z,12.80
2023-05-09T06:37:48.830Z,12.83
2023-05-09T06:40:16.420Z,12.86
2023-05-09T06:42:42.955Z,12.89
2023-05-09T06:45:09.967Z,12.91
2023-05-09T06:47:36.763Z,12.93
2023-05-09T06:50:03.769Z,12.95
2023-05-09T06:52:30.428Z,12.99
2023-05-09T06:54:57.190Z,13.02
2023-05-09T06:57:23.769Z,13.06
2023-05-09T06:59:50.725Z,13.09
2023-05-09T07:02:17.271Z,13.13
2023-05-09T07:04:43.816Z,13.16
2023-05-09T07:07:10.433Z,13.21
2023-05-09T07:09:36.963Z,13.26
2023-05-09T07:12:03.860Z,13.35
2023-05-09T07:14:30.355Z,13.42
2023-05-09T07:17:05.454Z,13.51
2023-05-09T07:19:41.259Z,13.61
2023-05-09T07:22:07.892Z,13.69
2023-05-09T07:24:34.445Z,13.77
2023-05-09T07:27:03.795Z,13.86
2023-05-09T07:29:30.510Z,13.94
2023-05-09T07:31:57.452Z,14.03
2023-05-09T07:34:25.410Z,14.12
2023-05-09T07:36:52.627Z,14.20
2023-05-09T07:39:19.178Z,14.32
2023-05-09T07:41:48.550Z,14.41
2023-05-09T07:44:15.989Z,14.51
2023-05-09T07:46:42.837Z,14.61
2023-05-09T07:49:09.668Z,14.72
2023-05-09T07:51:36.322Z,14.81
2023-05-09T07:54:02.897Z,14.89
2023-05-09T07:56:29.462Z,14.97
2023-05-09T07:58:56.044Z,15.05
2023-05-09T08:01:22.552Z,15.15
2023-05-09T08:03:49.330Z,15.25
2023-05-09T08:06:16.154Z,15.38
2023-05-09T08:08:42.668Z,15.53
2023-05-09T08:11:09.162Z,15.67
2023-05-09T08:13:35.726Z,15.80
2023-05-09T08:16:02.776Z,15.92
2023-05-09T08:18:29.433Z,16.04
2023-05-09T08:20:56.007Z,16.14
2023-05-09T08:23:22.529Z,16.25
2023-05-09T08:25:53.092Z,16.39
2023-05-09T08:28:19.586Z,16.54
2023-05-09T08:30:46.091Z,16.69
2023-05-09T08:33:13.410Z,16.87
2023-05-09T08:35:40.094Z,17.06
2023-05-09T08:38:06.593Z,17.25
2023-05-09T08:40:37.279Z,17.44
2023-05-09T08:43:07.973Z,17.67
2023-05-09T08:45:47.833Z,17.89
2023-05-09T08:48:16.972Z,18.09
2023-05-09T08:50:44.268Z,18.31
2023-05-09T08:53:14.420Z,18.51
2023-05-09T08:55:41.076Z,18.69
2023-05-09T08:58:09.129Z,18.89
2023-05-09T09:00:38.764Z,19.07
2023-05-09T09:03:07.702Z,19.29
2023-05-09T09:05:41.964Z,19.48
2023-05-09T09:08:10.111Z,19.71
2023-05-09T09:10:40.711Z,19.92
2023-05-09T09:13:08.656Z,20.13
2023-05-09T09:15:37.168Z,20.35
2023-05-09T09:18:09.853Z,20.56
2023-05-09T09:20:48.852Z,20.70
2023-05-09T09:23:21.056Z,20.86
2023-05-09T09:25:48.333Z,20.97
2023-05-09T09:28:15.469Z,21.08
2023-05-09T09:30:47.675Z,21.14
2023-05-09T09:33:24.807Z,21.20
2023-05-09T09:35:53.131Z,21.25
2023-05-09T09:38:20.731Z,21.27
2023-05-09T09:40:53.209Z,21.36
2023-05-09T09:43:19.837Z,21.43
2023-05-09T09:45:51.275Z,21.48
2023-05-09T09:48:17.987Z,21.57
2023-05-09T09:50:47.923Z,21.60
2023-05-09T09:53:14.416Z,21.71
2023-05-09T09:55:50.291Z,21.78
2023-05-09T09:58:18.661Z,21.84
2023-05-09T10:00:46.275Z,21.89
2023-05-09T10:03:17.401Z,21.97
2023-05-09T10:05:44.057Z,22.05
2023-05-09T10:08:10.761Z,22.12
2023-05-09T10:10:37.734Z,22.17
2023-05-09T10:13:07.641Z,22.19
2023-05-09T10:15:49.272Z,22.22
2023-05-09T10:18:25.071Z,22.23
2023-05-09T10:20:52.449Z,22.25
2023-05-09T10:23:20.875Z,22.24
2023-05-09T10:26:03.465Z,22.21
2023-05-09T10:28:33.755Z,22.18
2023-05-09T10:31:08.870Z,22.14
2023-05-09T10:33:46.191Z,22.10
2023-05-09T10:36:15.448Z,22.06
2023-05-09T10:38:42.782Z,22.04
2023-05-09T10:41:10.848Z,22.02
2023-05-09T10:43:37.704Z,22.03
2023-05-09T10:46:05.334Z,22.08
2023-05-09T10:48:33.127Z,22.17
2023-05-09T10:51:03.712Z,22.27
2023-05-09T10:53:46.607Z,22.36
2023-05-09T10:56:22.947Z,22.44
2023-05-09T10:58:49.499Z,22.48
2023-05-09T11:01:34.688Z,22.50
2023-05-09T11:04:02.211Z,22.52
2023-05-09T11:06:42.368Z,22.57
2023-05-09T11:09:28.225Z,22.62
2023-05-09T11:12:06.108Z,22.67
2023-05-09T11:14:35.802Z,22.74
2023-05-09T11:17:05.021Z,22.81
2023-05-09T11:19:46.772Z,22.83
2023-05-09T11:22:20.510Z,22.84
2023-05-09T11:24:49.064Z,22.84
2023-05-09T11:27:25.050Z,22.81
2023-05-09T11:29:54.601Z,22.77
2023-05-09T11:32:22.484Z,22.72
2023-05-09T11:34:49.680Z,22.68
2023-05-09T11:37:18.088Z,22.63
2023-05-09T11:40:03.099Z,22.60
2023-05-09T11:42:29.952Z,22.56
2023-05-09T11:44:57.866Z,22.53
2023-05-09T11:47:25.502Z,22.51
2023-05-09T11:49:52.268Z,22.48
2023-05-09T11:52:20.165Z,22.47
2023-05-09T11:54:46.977Z,22.47
2023-05-09T11:57:17.634Z,22.44
2023-05-09T11:59:45.666Z,22.42
2023-05-09T12:02:13.720Z,22.40
2023-05-09T12:04:40.755Z,22.38
2023-05-09T12:07:07.647Z,22.38
2023-05-09T12:09:38.362Z,22.37
2023-05-09T12:12:13.708Z,22.37
2023-05-09T12:14:41.664Z,22.37
2023-05-09T12:17:08.356Z,22.38
2023-05-09T12:19:35.570Z,22.42
2023-05-09T12:22:03.933Z,22.54
2023-05-09T12:24:31.381Z,22.67
2023-05-09T12:26:59.998Z,22.84
2023-05-09T12:29:27.213Z,23.03
2023-05-09T12:31:54.437Z,23.23
2023-05-09T12:34:21.567Z,23.44
2023-05-09T12:36:51.731Z,23.64
2023-05-09T12:39:21.816Z,23.86
2023-05-09T12:42:00.354Z,24.08
2023-05-09T12:44:29.823Z,24.28
2023-05-09T12:47:01.627Z,24.46
2023-05-09T12:49:29.646Z,24.60
2023-05-09T12:51:58.865Z,24.72
2023-05-09T12:54:28.029Z,24.86
2023-05-09T12:56:57.017Z,25.00
2023-05-09T12:59:24.958Z,25.12
2023-05-09T13:01:54.244Z,25.21
2023-05-09T13:04:22.077Z,25.27
2023-05-09T13:06:53.905Z,25.31
2023-05-09T13:09:20.420Z,25.31
2023-05-09T13:11:47.761Z,25.25
2023-05-09T13:14:15.379Z,25.18
2023-05-09T13:16:42.164Z,25.09
2023-05-09T13:19:08.849Z,25.00
2023-05-09T13:21:36.217Z,24.91
2023-05-09T13:24:04.177Z,24.83
2023-05-09T13:26:30.953Z,24.71
2023-05-09T13:28:58.195Z,24.57
2023-05-09T13:31:25.065Z,24.48
2023-05-09T13:33:52.287Z,24.36
2023-05-09T13:36:19.250Z,24.27
2023-05-09T13:38:46.130Z,24.19
2023-05-09T13:41:13.762Z,24.10
2023-05-09T13:43:43.099Z,24.01
2023-05-09T13:46:09.736Z,23.92
2023-05-09T13:48:36.299Z,23.80
2023-05-09T13:51:03.730Z,23.71
2023-05-09T13:53:30.224Z,23.60
2023-05-09T13:55:57.090Z,23.48
2023-05-09T13:58:23.762Z,23.37
2023-05-09T14:00:50.354Z,23.26
2023-05-09T14:03:17.018Z,23.17
2023-05-09T14:05:43.657Z,23.12
2023-05-09T14:08:11.091Z,23.05
2023-05-09T14:10:37.669Z,22.99
2023-05-09T14:13:04.241Z,22.94
2023-05-09T14:15:30.817Z,22.86
2023-05-09T14:17:57.524Z,22.85
2023-05-09T14:20:24.141Z,22.79
2023-05-09T14:22:50.630Z,22.74
2023-05-09T14:25:17.196Z,22.67
2023-05-09T14:27:43.783Z,22.58
2023-05-09T14:30:11.979Z,22.51
2023-05-09T14:32:38.478Z,22.42
2023-05-09T14:35:05.578Z,22.42
2023-05-09T14:37:32.705Z,22.38
2023-05-09T14:40:05.339Z,22.29
2023-05-09T14:42:32.258Z,22.22
2023-05-09T14:44:59.216Z,22.17
2023-05-09T14:47:25.823Z,22.13
2023-05-09T14:49:52.461Z,22.07
2023-05-09T14:52:19.066Z,22.02
2023-05-09T14:54:45.574Z,22.00
2023-05-09T14:57:12.288Z,21.97
2023-05-09T14:59:38.768Z,21.94
2023-05-09T15:02:05.848Z,21.93
2023-05-09T15:04:32.364Z,21.94
2023-05-09T15:06:59.189Z,21.91
2023-05-09T15:09:26.731Z,21.90
2023-05-09T15:11:54.094Z,21.89
2023-05-09T15:14:20.709Z,21.87
2023-05-09T15:16:47.410Z,21.86
2023-05-09T15:19:14.683Z,21.86
2023-05-09T15:21:41.482Z,21.88
2023-05-09T15:24:08.120Z,21.88
2023-05-09T15:26:34.625Z,21.91
2023-05-09T15:29:01.139Z,21.95
2023-05-09T15:31:32.367Z,21.98
2023-05-09T15:33:59.705Z,22.04
2023-05-09T15:36:29.450Z,22.10
2023-05-09T15:38:56.114Z,22.16
2023-05-09T15:41:23.135Z,22.21
2023-05-09T15:43:49.881Z,22.25
2023-05-09T15:46:17.071Z,22.28
2023-05-09T15:48:43.623Z,22.30
2023-05-09T15:51:10.136Z,22.33
2023-05-09T15:53:36.820Z,22.33
2023-05-09T15:56:03.883Z,22.34
2023-05-09T15:58:30.669Z,22.33
2023-05-09T16:00:57.207Z,22.34
2023-05-09T16:03:24.887Z,22.34
2023-05-09T16:05:52.290Z,22.32
2023-05-09T16:08:19.059Z,22.31
2023-05-09T16:10:48.977Z,22.31
2023-05-09T16:13:17.847Z,22.30
2023-05-09T16:15:45.505Z,22.30
2023-05-09T16:18:12.170Z,22.29
2023-05-09T16:20:39.300Z,22.26
2023-05-09T16:23:05.832Z,22.28
2023-05-09T16:25:34.508Z,22.26
2023-05-09T16:28:02.082Z,22.25
2023-05-09T16:30:28.616Z,22.24
2023-05-09T16:32:55.192Z,22.21
2023-05-09T16:35:22.099Z,22.19
2023-05-09T16:37:48.661Z,22.18
2023-05-09T16:40:15.549Z,22.14
2023-05-09T16:42:43.011Z,22.11
2023-05-09T16:45:10.028Z,22.08
2023-05-09T16:47:36.768Z,22.06
2023-05-09T16:50:04.669Z,22.06
2023-05-09T16:52:31.344Z,22.04
2023-05-09T16:54:59.396Z,22.03
2023-05-09T16:57:26.076Z,22.03
2023-05-09T16:59:54.076Z,22.02
2023-05-09T17:02:20.624Z,22.03
2023-05-09T17:04:47.328Z,22.02
2023-05-09T17:07:14.553Z,22.02
2023-05-09T17:09:41.408Z,22.00
2023-05-09T17:12:08.135Z,21.99
2023-05-09T17:14:34.668Z,21.97
2023-05-09T17:17:01.423Z,21.94
2023-05-09T17:19:28.162Z,21.92
2023-05-09T17:21:56.081Z,21.91
2023-05-09T17:24:22.604Z,21.88
2023-05-09T17:26:50.223Z,21.85
2023-05-09T17:29:16.750Z,21.83
2023-05-09T17:31:43.321Z,21.82
2023-05-09T17:34:09.883Z,21.78
2023-05-09T17:36:36.511Z,21.79
2023-05-09T17:39:03.012Z,21.79
2023-05-09T17:41:29.691Z,21.79
2023-05-09T17:43:57.457Z,21.80
2023-05-09T17:46:24.335Z,21.81
2023-05-09T17:48:50.919Z,21.79
2023-05-09T17:51:17.581Z,21.78
2023-05-09T17:53:44.181Z,21.78
2023-05-09T17:56:10.712Z,21.73
2023-05-09T17:58:37.254Z,21.70
2023-05-09T18:01:03.892Z,21.64
2023-05-09T18:03:32.244Z,21.61
2023-05-09T18:06:00.524Z,21.56
2023-05-09T18:08:27.571Z,21.51
2023-05-09T18:10:56.686Z,21.47
2023-05-09T18:13:23.436Z,21.43
2023-05-09T18:15:50.000Z,21.39
2023-05-09T18:18:16.700Z,21.34
2023-05-09T18:20:43.346Z,21.25
2023-05-09T18:23:10.434Z,21.15
2023-05-09T18:25:38.637Z,21.07
2023-05-09T18:28:05.376Z,20.98
2023-05-09T18:30:32.012Z,20.89
2023-05-09T18:33:00.386Z,20.79
2023-05-09T18:35:27.031Z,20.64
2023-05-09T18:37:53.724Z,20.57
2023-05-09T18:40:20.232Z,20.50
2023-05-09T18:42:47.358Z,20.39
2023-05-09T18:45:14.124Z,20.30
2023-05-09T18:47:40.631Z,20.21
2023-05-09T18:50:08.166Z,20.12
2023-05-09T18:52:34.904Z,19.99
2023-05-09T18:55:01.460Z,19.90
2023-05-09T18:57:28.383Z,19.80
2023-05-09T18:59:55.877Z,19.67
2023-05-09T19:02:23.595Z,19.53
2023-05-09T19:04:51.514Z,19.44
2023-05-09T19:07:18.170Z,19.33
2023-05-09T19:09:44.755Z,19.25
2023-05-09T19:12:11.261Z,19.12
2023-05-09T19:14:38.142Z,19.04
2023-05-09T19:17:05.646Z,18.96
2023-05-09T19:19:32.400Z,18.87
2023-05-09T19:21:59.073Z,18.77
2023-05-09T19:24:25.591Z,18.70
2023-05-09T19:26:52.140Z,18.60
2023-05-09T19:29:18.689Z,18.53
2023-05-09T19:31:45.403Z,18.42
2023-05-09T19:34:12.063Z,18.33
2023-05-09T19:36:38.613Z,18.23
2023-05-09T19:39:05.518Z,18.12
2023-05-09T19:41:32.209Z,18.06
2023-05-09T19:43:59.393Z,17.93
2023-05-09T19:46:26.012Z,17.84
2023-05-09T19:48:52.830Z,17.76
2023-05-09T19:51:19.308Z,17.67
2023-05-09T19:53:46.965Z,17.57
2023-05-09T19:56:13.865Z,17.47
2023-05-09T19:58:40.379Z,17.39
2023-05-09T20:01:07.344Z,17.29
2023-05-09T20:03:37.104Z,17.17
2023-05-09T20:06:04.147Z,17.09
2023-05-09T20:08:31.151Z,17.04
2023-05-09T20:10:59.592Z,16.96
2023-05-09T20:13:27.053Z,16.82
2023-05-09T20:15:53.858Z,16.73
2023-05-09T20:18:20.569Z,16.68
2023-05-09T20:20:47.071Z,16.61
2023-05-09T20:23:13.604Z,16.53
2023-05-09T20:25:40.378Z,16.43
2023-05-09T20:28:06.875Z,16.34
2023-05-09T20:30:33.418Z,16.24
2023-05-09T20:33:01.190Z,16.14
2023-05-09T20:35:27.832Z,16.07
2023-05-09T20:37:54.692Z,16.01
2023-05-09T20:40:21.262Z,15.93
2023-05-09T20:42:47.748Z,15.81
2023-05-09T20:45:14.296Z,15.76
2023-05-09T20:47:40.875Z,15.66
2023-05-09T20:50:07.981Z,15.58
2023-05-09T20:52:34.496Z,15.52
2023-05-09T20:55:01.975Z,15.40
2023-05-09T20:57:28.682Z,15.37
2023-05-09T20:59:55.315Z,15.29
2023-05-09T21:02:21.917Z,15.21
2023-05-09T21:04:48.566Z,15.16
2023-05-09T21:07:19.247Z,15.06
2023-05-09T21:09:49.758Z,15.00
2023-05-09T21:12:16.829Z,14.93
2023-05-09T21:14:44.731Z,14.84
2023-05-09T21:17:11.604Z,14.78
2023-05-09T21:19:38.233Z,14.76
2023-05-09T21:22:04.826Z,14.68
2023-05-09T21:24:32.406Z,14.62
2023-05-09T21:26:58.896Z,14.56
2023-05-09T21:29:25.482Z,14.46
2023-05-09T21:31:52.060Z,14.39
2023-05-09T21:34:18.757Z,14.30
2023-05-09T21:36:45.362Z,14.22
2023-05-09T21:39:11.973Z,14.19
2023-05-09T21:41:40.056Z,14.14
2023-05-09T21:44:07.777Z,14.05
2023-05-09T21:46:35.322Z,13.98
2023-05-09T21:49:02.073Z,13.90
2023-05-09T21:51:29.087Z,13.86
2023-05-09T21:53:55.844Z,13.84
2023-05-09T21:56:23.040Z,13.78
2023-05-09T21:58:49.557Z,13.73
2023-05-09T22:01:18.437Z,13.67
2023-05-09T22:03:45.703Z,13.59
2023-05-09T22:06:13.473Z,13.52
2023-05-09T22:08:40.038Z,13.42
2023-05-09T22:11:07.751Z,13.36
2023-05-09T22:13:36.049Z,13.32
2023-05-09T22:16:03.865Z,13.26
2023-05-09T22:18:31.365Z,13.18
2023-05-09T22:20:57.850Z,13.15
2023-05-09T22:23:24.548Z,13.11
2023-05-09T22:25:51.012Z,13.00
2023-05-09T22:28:17.497Z,12.90
2023-05-09T22:30:44.117Z,12.88
2023-05-09T22:33:11.237Z,12.84
2023-05-09T22:35:37.812Z,12.76
2023-05-09T22:38:04.349Z,12.74
2023-05-09T22:40:30.826Z,12.68
2023-05-09T22:42:57.369Z,12.65
2023-05-09T22:45:23.892Z,12.61
2023-05-09T22:47:50.486Z,12.52
2023-05-09T22:50:17.547Z,12.47
2023-05-09T22:52:44.312Z,12.44
2023-05-09T22:55:11.425Z,12.42
2023-05-09T22:57:37.981Z,12.38
2023-05-09T23:00:05.015Z,12.36
2023-05-09T23:02:31.634Z,12.31
2023-05-09T23:04:58.269Z,12.23
2023-05-09T23:07:24.792Z,12.16
2023-05-09T23:09:51.383Z,12.13
2023-05-09T23:12:17.987Z,12.09
2023-05-09T23:14:44.513Z,11.98
2023-05-09T23:17:11.098Z,11.94
2023-05-09T23:19:37.996Z,11.89
2023-05-09T23:22:04.667Z,11.83
2023-05-09T23:24:31.154Z,11.78
2023-05-09T23:26:58.022Z,11.67
2023-05-09T23:29:25.247Z,11.68
2023-05-09T23:31:51.748Z,11.57
2023-05-09T23:34:18.278Z,11.51
2023-05-09T23:36:44.882Z,11.47
2023-05-09T23:39:12.083Z,11.44
2023-05-09T23:41:38.893Z,11.36
2023-05-09T23:44:07.574Z,11.35
2023-05-09T23:46:34.197Z,11.28
2023-05-09T23:49:00.889Z,11.26
2023-05-09T23:51:27.388Z,11.23
2023-05-09T23:53:53.856Z,11.20
2023-05-09T23:56:21.203Z,11.09
2023-05-09T23:58:47.735Z,11.06
